Time;durP1;ratioP1;P1;durP2;ratioP2;P2;SDS_P1;SDS_P2;PMS_P1;PMS_P2;Temp;Humidity;BMP_temperature;BMP_pressure;BME280_temperature;BME280_humidity;BME280_pressure;Samples;Min_cycle;Max_cycle;Signal;HPM_P1;HPM_P2
2022/04/17 00:00:41;;;;;;;17.00;9.95;;;;;;;-0.24;85.06;100179.56;4203136;28;20435;-72
2022/04/17 00:02:42;;;;;;;25.67;10.80;;;;;;;-0.30;85.73;100182.25;4207522;28;20072;-72
2022/04/17 00:04:42;;;;;;;14.63;9.38;;;;;;;-0.30;85.60;100184.16;4204681;28;20419;-71
2022/04/17 00:06:42;;;;;;;19.88;11.32;;;;;;;-0.32;84.47;100181.69;4202131;28;20166;-71
2022/04/17 00:08:43;;;;;;;18.70;11.40;;;;;;;-0.42;85.33;100183.53;4203387;28;20469;-71
2022/04/17 00:10:47;;;;;;;17.40;10.02;;;;;;;-0.40;86.32;100189.53;4211135;27;20043;-71
2022/04/17 00:12:48;;;;;;;17.92;10.68;;;;;;;-0.40;84.79;100181.38;4205899;28;20069;-71
2022/04/17 00:14:49;;;;;;;12.10;9.73;;;;;;;-0.42;86.66;100183.53;4212263;28;20385;-71
2022/04/17 00:16:49;;;;;;;20.20;11.38;;;;;;;-0.42;85.98;100183.53;4202651;28;20333;-71
2022/04/17 00:18:50;;;;;;;21.25;11.55;;;;;;;-0.57;85.92;100178.84;4202561;28;20428;-71
2022/04/17 00:20:50;;;;;;;17.88;11.02;;;;;;;-0.54;86.37;100181.03;4204183;28;20357;-71
2022/04/17 00:22:50;;;;;;;18.00;11.57;;;;;;;-0.63;86.19;100172.53;4213164;27;20070;-71
2022/04/17 00:24:52;;;;;;;19.08;10.90;;;;;;;-0.70;86.25;100176.56;4202888;28;20127;-71
2022/04/17 00:26:52;;;;;;;19.58;11.60;;;;;;;-0.66;86.44;100167.66;4201378;28;20100;-71
2022/04/17 00:28:53;;;;;;;14.10;10.43;;;;;;;-0.60;85.41;100172.00;4205933;27;20130;-72
2022/04/17 00:30:54;;;;;;;16.98;11.07;;;;;;;-0.61;87.83;100170.38;4206520;28;20036;-72
2022/04/17 00:32:54;;;;;;;17.20;10.98;;;;;;;-0.51;84.59;100171.50;4202345;28;20426;-72
2022/04/17 00:34:55;;;;;;;17.05;10.63;;;;;;;-0.59;85.12;100167.38;4202790;28;20044;-72
2022/04/17 00:36:59;;;;;;;17.55;11.77;;;;;;;-0.62;87.15;100163.31;4201465;28;20491;-72
2022/04/17 00:38:59;;;;;;;16.80;10.57;;;;;;;-0.59;83.92;100161.94;4203125;28;20055;-72
2022/04/17 00:41:00;;;;;;;18.88;10.55;;;;;;;-0.63;85.24;100166.28;4202784;28;20086;-72
2022/04/17 00:43:01;;;;;;;19.48;10.77;;;;;;;-0.62;86.24;100165.22;4209611;27;20040;-72
2022/04/17 00:45:02;;;;;;;16.42;10.45;;;;;;;-0.60;86.69;100171.19;4205274;28;20789;-72
2022/04/17 00:47:04;;;;;;;16.77;10.70;;;;;;;-0.65;86.59;100166.56;4200696;28;20066;-72
2022/04/17 00:49:04;;;;;;;18.92;10.80;;;;;;;-0.64;85.23;100170.09;4207375;28;20047;-72
2022/04/17 00:51:06;;;;;;;19.92;10.85;;;;;;;-0.65;85.76;100161.13;4202845;28;20048;-72
2022/04/17 00:53:06;;;;;;;18.55;10.45;;;;;;;-0.67;85.39;100162.44;4203274;28;20479;-72
2022/04/17 00:55:08;;;;;;;18.55;10.15;;;;;;;-0.66;85.86;100150.53;4206306;28;20068;-72
2022/04/17 00:57:11;;;;;;;15.05;9.60;;;;;;;-0.62;84.56;100157.06;4202206;28;20400;-72
2022/04/17 00:59:13;;;;;;;17.83;11.13;;;;;;;-0.73;84.28;100148.03;4202179;28;20048;-72
2022/04/17 01:01:14;;;;;;;16.13;10.23;;;;;;;-0.86;85.27;100153.91;4202565;28;20101;-72
2022/04/17 01:03:15;;;;;;;15.75;9.88;;;;;;;-0.99;86.91;100152.50;4201300;28;20052;-72
2022/04/17 01:05:15;;;;;;;19.55;11.43;;;;;;;-1.04;86.32;100152.44;4202508;28;20048;-71
2022/04/17 01:07:16;;;;;;;14.73;9.20;;;;;;;-0.99;86.66;100155.22;4201675;28;20040;-72
2022/04/17 01:09:16;;;;;;;17.35;10.27;;;;;;;-1.00;86.50;100144.56;4202662;28;20159;-72
2022/04/17 01:11:17;;;;;;;19.85;10.68;;;;;;;-1.03;86.22;100151.34;4204754;28;20040;-72
2022/04/17 01:13:18;;;;;;;18.05;11.35;;;;;;;-1.04;86.63;100151.63;4205633;28;20071;-72
2022/04/17 01:15:19;;;;;;;16.40;10.48;;;;;;;-1.06;86.26;100151.06;4205753;28;20408;-72
2022/04/17 01:17:19;;;;;;;13.98;9.70;;;;;;;-1.03;88.09;100147.81;4209880;27;20123;-72
2022/04/17 01:19:19;;;;;;;18.13;11.25;;;;;;;-1.09;88.05;100136.09;4205298;28;20069;-72
2022/04/17 01:21:20;;;;;;;17.25;10.63;;;;;;;-1.11;88.28;100140.97;4205552;28;20199;-71
2022/04/17 01:28:01;;;;;;;16.73;9.35;;;;;;;-0.99;87.71;100138.91;4203186;28;20359;-72
2022/04/17 01:30:03;;;;;;;16.92;9.85;;;;;;;-1.00;88.22;100137.25;4206936;28;20032;-72
2022/04/17 01:32:06;;;;;;;15.20;9.73;;;;;;;-1.01;88.67;100135.59;4208338;28;20039;-72
2022/04/17 01:34:08;;;;;;;13.52;8.98;;;;;;;-0.93;87.75;100134.31;4210090;28;20086;-72
2022/04/17 01:36:08;;;;;;;13.43;8.40;;;;;;;-0.99;86.55;100135.38;4204900;28;20040;-71
2022/04/17 01:38:08;;;;;;;14.95;8.65;;;;;;;-1.07;88.25;100123.09;4204563;28;20077;-72
2022/04/17 01:40:09;;;;;;;16.58;9.45;;;;;;;-1.08;86.71;100128.75;4208738;28;20032;-72
2022/04/17 01:42:11;;;;;;;14.07;9.23;;;;;;;-1.12;88.38;100123.03;4205259;28;20083;-72
2022/04/17 01:44:12;;;;;;;13.93;8.38;;;;;;;-1.18;87.98;100119.47;4208421;28;20039;-72
2022/04/17 01:46:12;;;;;;;15.38;8.43;;;;;;;-1.25;87.76;100113.44;4204534;28;20020;-72
2022/04/17 01:48:12;;;;;;;11.48;7.80;;;;;;;-1.29;86.83;100120.47;4208008;27;20032;-72
2022/04/17 01:50:13;;;;;;;13.80;9.45;;;;;;;-1.32;87.77;100121.00;4207219;28;20267;-72
2022/04/17 01:52:13;;;;;;;15.13;9.63;;;;;;;-1.38;89.37;100115.78;4204934;28;20111;-71
2022/04/17 01:54:15;;;;;;;14.15;9.00;;;;;;;-1.36;91.03;100119.06;4210339;28;20463;-71
2022/04/17 01:56:16;;;;;;;15.32;8.77;;;;;;;-1.35;90.04;100123.41;4204617;28;20377;-71
2022/04/17 01:58:16;;;;;;;14.18;8.63;;;;;;;-1.35;89.32;100110.66;4203954;28;20066;-72
2022/04/17 02:00:17;;;;;;;16.05;8.88;;;;;;;-1.36;88.34;100109.00;4209575;28;20372;-72
2022/04/17 02:02:18;;;;;;;20.13;8.77;;;;;;;-1.42;89.57;100101.91;4204527;28;20456;-72
2022/04/17 02:04:18;;;;;;;13.43;9.38;;;;;;;-1.48;89.62;100106.50;4207539;28;20043;-72
2022/04/17 02:06:18;;;;;;;12.48;8.15;;;;;;;-1.51;89.81;100103.47;4206555;28;20529;-72
2022/04/17 02:08:19;;;;;;;13.10;8.20;;;;;;;-1.55;89.72;100102.34;4212950;28;20032;-72
2022/04/17 02:10:19;;;;;;;13.23;8.52;;;;;;;-1.51;90.93;100085.28;4208160;27;20110;-71
2022/04/17 02:12:19;;;;;;;11.95;8.13;;;;;;;-1.48;89.15;100094.81;4204675;28;20448;-71
2022/04/17 02:14:20;;;;;;;14.50;8.15;;;;;;;-1.49;88.65;100094.00;4208813;28;20169;-71
2022/04/17 02:16:21;;;;;;;10.93;8.05;;;;;;;-1.51;89.97;100100.75;4204141;28;20039;-71
2022/04/17 02:18:21;;;;;;;15.95;8.30;;;;;;;-1.50;89.68;100088.81;4203492;28;20544;-71
2022/04/17 02:20:21;;;;;;;14.05;8.43;;;;;;;-1.48;89.34;100101.06;4210683;28;20134;-71
2022/04/17 02:22:21;;;;;;;13.02;8.50;;;;;;;-1.51;88.95;100087.16;4205647;28;20314;-71
2022/04/17 02:24:22;;;;;;;17.58;8.25;;;;;;;-1.47;88.95;100099.97;4204132;28;20420;-71
2022/04/17 02:26:22;;;;;;;13.15;8.15;;;;;;;-1.41;87.62;100089.97;4203841;28;20128;-71
2022/04/17 02:28:23;;;;;;;12.60;7.55;;;;;;;-1.47;86.99;100089.13;4203735;28;20036;-71
2022/04/17 02:30:23;;;;;;;14.18;8.73;;;;;;;-1.51;87.55;100082.56;4203849;28;20077;-72
2022/04/17 02:32:23;;;;;;;12.45;7.72;;;;;;;-1.49;87.26;100076.88;4204410;28;20040;-72
2022/04/17 02:34:24;;;;;;;13.50;8.80;;;;;;;-1.52;87.75;100075.50;4209222;28;20479;-72
2022/04/17 02:36:24;;;;;;;16.90;9.05;;;;;;;-1.50;89.01;100075.22;4203809;28;20051;-72
2022/04/17 02:38:25;;;;;;;16.42;9.07;;;;;;;-1.53;88.92;100079.28;4203962;28;20059;-72
2022/04/17 02:40:25;;;;;;;13.05;7.72;;;;;;;-1.58;88.29;100078.44;4204400;28;20357;-72
2022/04/17 02:42:26;;;;;;;16.10;8.15;;;;;;;-1.74;86.94;100081.03;4203862;28;20040;-72
2022/04/17 02:44:26;;;;;;;14.43;8.63;;;;;;;-1.83;88.59;100082.56;4203616;28;20044;-72
2022/04/17 02:48:45;;;;;;;15.13;9.02;;;;;;;-1.77;89.32;100076.09;4206822;28;20108;-72
2022/04/17 02:50:49;;;;;;;13.30;7.72;;;;;;;-1.71;88.90;100075.06;4210049;28;20052;-72
2022/04/17 02:52:55;;;;;;;10.38;7.47;;;;;;;-1.72;89.15;100080.78;4210240;27;20044;-72
2022/04/17 02:54:55;;;;;;;14.35;7.80;;;;;;;-1.78;89.05;100088.03;4210421;27;20039;-72
2022/04/17 02:56:55;;;;;;;12.05;7.75;;;;;;;-1.78;89.26;100079.09;4208833;28;20044;-72
2022/04/17 02:58:56;;;;;;;15.48;8.48;;;;;;;-1.75;87.32;100073.13;4201924;28;20048;-72
2022/04/17 03:05:36;;;;;;;15.43;8.38;;;;;;;-1.65;87.87;100083.28;4203589;28;20486;-71
2022/04/17 03:07:37;;;;;;;12.63;7.55;;;;;;;-1.64;87.88;100074.88;4208459;28;20269;-72
2022/04/17 03:09:37;;;;;;;11.65;7.90;;;;;;;-1.77;86.50;100076.09;4205063;28;20360;-72
2022/04/17 03:11:37;;;;;;;11.40;7.60;;;;;;;-1.91;85.91;100076.78;4210568;28;20071;-72
2022/04/17 03:13:38;;;;;;;12.38;7.70;;;;;;;-2.06;87.61;100085.59;4214754;27;20036;-72
2022/04/17 03:15:38;;;;;;;12.13;7.68;;;;;;;-2.10;88.23;100076.34;4203195;28;20740;-72
2022/04/17 03:17:39;;;;;;;13.95;8.05;;;;;;;-2.14;88.54;100072.50;4202889;28;20472;-72
2022/04/17 03:19:40;;;;;;;12.35;7.85;;;;;;;-2.08;88.51;100075.00;4209282;28;20073;-72
2022/04/17 03:21:40;;;;;;;13.40;8.32;;;;;;;-2.07;89.25;100083.94;4202768;28;20089;-72
2022/04/17 03:23:40;;;;;;;14.77;8.35;;;;;;;-2.07;88.84;100073.09;4208319;28;20032;-72
2022/04/17 03:25:41;;;;;;;13.25;8.07;;;;;;;-1.95;88.32;100087.34;4202856;28;20032;-72
2022/04/17 03:27:43;;;;;;;13.82;8.43;;;;;;;-1.95;88.94;100087.34;4202381;28;20096;-72
2022/04/17 03:29:43;;;;;;;14.98;7.95;;;;;;;-1.99;89.08;100081.63;4203194;28;20476;-72
2022/04/17 03:31:44;;;;;;;12.95;8.70;;;;;;;-2.10;89.41;100079.84;4202817;28;20048;-72
2022/04/17 03:33:45;;;;;;;13.43;9.18;;;;;;;-2.18;90.10;100074.91;4203818;28;20040;-71
2022/04/17 03:35:45;;;;;;;18.63;9.25;;;;;;;-2.15;91.19;100068.13;4203334;28;20434;-71
2022/04/17 03:37:45;;;;;;;13.57;8.52;;;;;;;-2.19;89.33;100067.03;4202456;28;20310;-72
2022/04/17 03:39:48;;;;;;;17.30;8.98;;;;;;;-2.21;89.54;100063.75;4203461;28;20369;-72
2022/04/17 03:41:48;;;;;;;14.80;8.55;;;;;;;-2.26;91.02;100057.19;4204095;28;20056;-72
2022/04/17 03:43:48;;;;;;;19.15;9.15;;;;;;;-2.21;92.04;100055.63;4203269;28;20044;-71
2022/04/17 03:45:49;;;;;;;11.68;8.18;;;;;;;-2.21;90.49;100064.56;4209512;27;20068;-71
2022/04/17 03:47:49;;;;;;;15.15;9.00;;;;;;;-2.17;89.78;100056.72;4202901;28;20036;-71
2022/04/17 03:49:49;;;;;;;13.13;8.35;;;;;;;-2.19;90.60;100061.59;4204330;28;20036;-72
2022/04/17 03:51:50;;;;;;;13.65;8.90;;;;;;;-2.18;91.62;100060.53;4208137;27;20123;-72
2022/04/17 03:53:50;;;;;;;14.30;9.65;;;;;;;-2.32;91.56;100063.66;4203282;28;20467;-72
2022/04/17 03:55:50;;;;;;;16.05;9.32;;;;;;;-2.36;92.05;100069.81;4202044;28;20063;-72
2022/04/17 03:57:51;;;;;;;16.85;9.02;;;;;;;-2.45;91.29;100068.63;4201998;28;20468;-72
2022/04/17 03:59:51;;;;;;;14.32;8.48;;;;;;;-2.53;91.71;100067.19;4202838;28;20139;-72
2022/04/17 04:01:51;;;;;;;17.77;8.77;;;;;;;-2.59;92.07;100062.78;4208898;28;20105;-72
2022/04/17 04:03:52;;;;;;;14.40;9.25;;;;;;;-2.66;92.33;100059.44;4202998;28;20206;-72
2022/04/17 04:05:52;;;;;;;16.45;9.90;;;;;;;-2.75;94.01;100060.97;4202937;28;20131;-72
2022/04/17 04:07:52;;;;;;;21.05;9.85;;;;;;;-2.84;94.00;100061.41;4209185;28;20069;-72
2022/04/17 04:09:53;;;;;;;14.23;9.07;;;;;;;-2.84;95.23;100069.53;4203348;28;20429;-72
2022/04/17 04:11:53;;;;;;;16.67;9.50;;;;;;;-2.84;96.27;100063.28;4206043;27;20373;-72
2022/04/17 04:13:54;;;;;;;15.63;9.25;;;;;;;-2.79;95.18;100063.38;4203913;28;20126;-71
2022/04/17 04:15:55;;;;;;;14.63;9.13;;;;;;;-2.76;93.89;100052.00;4202773;28;20040;-72
2022/04/17 04:17:55;;;;;;;17.20;9.23;;;;;;;-2.74;94.10;100057.16;4201978;28;20075;-72
2022/04/17 04:19:56;;;;;;;16.73;8.98;;;;;;;-2.80;94.03;100052.78;4202869;28;20390;-72
2022/04/17 04:21:56;;;;;;;12.80;8.05;;;;;;;-2.95;93.65;100065.06;4202920;28;20075;-72
2022/04/17 04:23:57;;;;;;;14.48;8.13;;;;;;;-3.01;94.44;100055.22;4205416;28;20047;-72
2022/04/17 04:25:57;;;;;;;13.82;8.50;;;;;;;-3.05;94.80;100058.69;4206269;27;20079;-72
2022/04/17 04:30:16;;;;;;;18.27;9.27;;;;;;;-3.07;96.74;100060.81;4201647;28;20075;-72
2022/04/17 04:32:22;;;;;;;12.52;8.25;;;;;;;-2.99;96.62;100060.38;4202915;28;20064;-72
2022/04/17 04:34:22;;;;;;;15.10;7.88;;;;;;;-3.04;94.95;100065.75;4202130;27;20071;-72
2022/04/17 04:36:23;;;;;;;13.90;8.48;;;;;;;-3.09;94.43;100061.06;4207244;28;20126;-72
2022/04/17 04:38:23;;;;;;;20.58;8.73;;;;;;;-3.16;94.68;100063.94;4201923;28;20052;-72
2022/04/17 04:40:23;;;;;;;14.07;9.10;;;;;;;-3.06;95.62;100062.44;4200866;28;20419;-72
2022/04/17 04:42:23;;;;;;;15.00;9.35;;;;;;;-2.97;94.44;100060.97;4209444;28;20123;-72
2022/04/17 04:44:24;;;;;;;14.18;9.07;;;;;;;-2.93;93.00;100059.38;4204256;28;20071;-72
2022/04/17 04:46:24;;;;;;;15.18;8.60;;;;;;;-2.92;93.46;100067.25;4206027;28;20791;-72
2022/04/17 04:50:43;;;;;;;12.13;7.82;;;;;;;-2.91;94.19;100059.94;4205217;28;20393;-72
2022/04/17 04:52:44;;;;;;;14.20;8.45;;;;;;;-2.90;94.78;100064.28;4205827;28;20471;-72
2022/04/17 04:54:44;;;;;;;14.75;8.15;;;;;;;-2.96;94.49;100058.00;4205810;28;20242;-72
2022/04/17 04:56:44;;;;;;;15.18;8.43;;;;;;;-2.92;94.04;100069.13;4207152;28;20415;-72
2022/04/17 04:58:45;;;;;;;13.07;8.15;;;;;;;-2.90;94.35;100061.56;4204546;28;20047;-72
2022/04/17 05:00:46;;;;;;;13.35;7.68;;;;;;;-2.79;92.95;100057.13;4205588;28;20592;-71
2022/04/17 05:02:46;;;;;;;12.65;8.57;;;;;;;-2.70;92.19;100058.31;4211396;27;20368;-72
2022/04/17 05:04:46;;;;;;;16.70;8.95;;;;;;;-2.55;90.98;100048.47;4209154;28;20043;-72
2022/04/17 05:06:47;;;;;;;18.60;10.02;;;;;;;-2.50;90.81;100050.41;4207248;28;20072;-71
2022/04/17 05:08:47;;;;;;;17.58;10.20;;;;;;;-2.42;90.14;100046.44;4210972;28;20044;-72
2022/04/17 05:10:48;;;;;;;16.55;10.20;;;;;;;-2.44;90.62;100038.56;4207386;27;20064;-72
2022/04/17 05:12:48;;;;;;;16.20;9.65;;;;;;;-2.39;90.39;100051.38;4208971;28;20055;-72
2022/04/17 05:14:49;;;;;;;16.42;10.50;;;;;;;-2.37;89.05;100041.09;4207431;28;20040;-72
2022/04/17 05:16:49;;;;;;;15.15;8.73;;;;;;;-2.34;88.57;100046.81;4204641;28;20052;-72
2022/04/17 05:19:00;;;;;;;14.10;9.70;;;;;;;-2.35;88.43;100039.75;4208422;28;20068;-72
2022/04/17 05:21:01;;;;;;;16.48;10.02;;;;;;;-2.32;89.54;100039.25;4205084;28;20072;-72
2022/04/17 05:23:19;;;;;;;15.75;9.65;;;;;;;-2.35;91.90;100039.75;4210176;27;20089;-72
2022/04/17 05:25:19;;;;;;;13.93;8.77;;;;;;;-2.29;90.03;100038.72;4204805;28;20044;-72
2022/04/17 05:27:22;;;;;;;18.35;9.52;;;;;;;-2.30;89.29;100045.22;4204689;28;20109;-72
2022/04/17 05:29:23;;;;;;;15.35;9.88;;;;;;;-2.32;90.31;100046.53;4203756;28;20032;-72
2022/04/17 05:31:24;;;;;;;14.18;9.50;;;;;;;-2.34;91.47;100033.25;4211790;27;20063;-71
2022/04/17 05:33:24;;;;;;;18.27;9.98;;;;;;;-2.31;92.29;100032.75;4204994;28;20040;-71
2022/04/17 05:35:25;;;;;;;18.20;9.85;;;;;;;-2.33;93.32;100029.47;4204990;28;20197;-71
2022/04/17 05:37:27;;;;;;;12.43;8.73;;;;;;;-2.30;93.50;100031.69;4203907;28;20040;-72
2022/04/17 05:39:27;;;;;;;20.63;9.88;;;;;;;-2.27;93.26;100033.88;4202876;28;20071;-71
2022/04/17 05:41:29;;;;;;;14.68;9.27;;;;;;;-2.22;93.47;100026.88;4204931;28;20044;-71
2022/04/17 05:43:29;;;;;;;14.48;9.50;;;;;;;-2.19;93.95;100023.63;4203603;28;20042;-72
2022/04/17 05:45:30;;;;;;;15.02;8.75;;;;;;;-2.00;92.57;100027.59;4205118;28;20131;-72
2022/04/17 05:47:30;;;;;;;15.32;9.13;;;;;;;-1.91;91.78;100011.66;4204126;28;20044;-72
2022/04/17 05:49:31;;;;;;;15.85;9.52;;;;;;;-1.74;90.91;100018.63;4207882;28;20353;-71
2022/04/17 05:51:39;;;;;;;15.30;9.80;;;;;;;-1.62;89.71;100010.28;4212827;27;20503;-71
2022/04/17 05:53:40;;;;;;;14.27;8.98;;;;;;;-1.48;88.98;100013.38;4207673;28;20059;-71
2022/04/17 05:55:41;;;;;;;16.25;9.93;;;;;;;-1.38;88.95;100016.16;4204074;28;20557;-72
2022/04/17 05:57:41;;;;;;;14.57;9.45;;;;;;;-1.30;88.33;100007.50;4203772;28;20048;-72
2022/04/17 05:59:42;;;;;;;16.92;9.07;;;;;;;-1.25;87.95;100012.94;4205171;27;20105;-72
2022/04/17 06:01:42;;;;;;;15.50;9.63;;;;;;;-1.21;88.38;100005.94;4206637;28;20036;-72
2022/04/17 06:03:42;;;;;;;17.10;9.07;;;;;;;-1.15;88.60;100012.22;4204523;28;20105;-72
2022/04/17 06:05:43;;;;;;;12.50;8.25;;;;;;;-1.10;88.39;100009.50;4144758;27;20126;-71
2022/04/17 06:07:43;;;;;;;12.35;7.40;;;;;;;-1.07;88.39;100009.00;4199969;28;20073;-72
2022/04/17 06:09:44;;;;;;;13.38;7.65;;;;;;;-1.02;89.95;100013.63;4205158;28;20388;-72
2022/04/17 06:11:44;;;;;;;10.27;6.57;;;;;;;-0.97;90.53;100010.94;4211276;28;20609;-71
2022/04/17 06:13:45;;;;;;;14.18;7.55;;;;;;;-0.92;90.64;100011.75;4208491;27;20056;-72
2022/04/17 06:15:45;;;;;;;10.38;6.72;;;;;;;-0.84;90.01;100018.59;4205248;28;20051;-72
2022/04/17 06:17:46;;;;;;;15.63;7.82;;;;;;;-0.78;90.26;100022.16;4209699;27;20115;-71
2022/04/17 06:19:46;;;;;;;12.93;8.35;;;;;;;-0.69;90.33;100028.72;4203800;28;20040;-72
2022/04/17 06:21:46;;;;;;;11.27;8.38;;;;;;;-0.61;90.69;100020.03;4204088;28;20052;-72
2022/04/17 06:23:47;;;;;;;12.93;8.82;;;;;;;-0.55;89.64;100013.53;4210484;28;20043;-72
2022/04/17 06:25:47;;;;;;;13.15;8.65;;;;;;;-0.45;89.73;100027.16;4203769;28;20047;-71
2022/04/17 06:27:48;;;;;;;12.25;7.47;;;;;;;-0.38;89.99;100027.72;4203493;28;20307;-71
2022/04/17 06:29:48;;;;;;;13.85;8.00;;;;;;;-0.32;89.22;100029.38;4206160;28;20369;-71
2022/04/17 06:31:48;;;;;;;10.20;7.75;;;;;;;-0.23;88.79;100021.50;4203756;28;20516;-71
2022/04/17 06:33:49;;;;;;;10.55;7.15;;;;;;;-0.13;88.52;100023.44;4204017;28;20036;-72
2022/04/17 06:35:49;;;;;;;12.15;8.30;;;;;;;-0.02;90.42;100016.91;4209757;27;20036;-72
2022/04/17 06:38:01;;;;;;;14.02;8.25;;;;;;;0.15;90.93;100025.63;4203104;28;20049;-72
2022/04/17 06:40:01;;;;;;;11.88;8.75;;;;;;;0.28;90.65;100018.81;4199767;28;20055;-72
2022/04/17 06:42:01;;;;;;;14.63;7.97;;;;;;;0.44;89.77;100031.34;4200647;28;20482;-72
2022/04/17 06:44:02;;;;;;;17.83;9.70;;;;;;;0.55;89.21;100032.97;4200551;28;20032;-72
2022/04/17 06:46:02;;;;;;;17.65;9.25;;;;;;;0.69;90.34;100029.69;4196344;28;20499;-72
2022/04/17 06:48:13;;;;;;;18.77;10.20;;;;;;;0.78;90.16;100017.94;4202868;28;20137;-72
2022/04/17 06:50:18;;;;;;;14.52;9.50;;;;;;;0.92;89.89;100017.38;4205471;28;20448;-72
2022/04/17 06:52:18;;;;;;;16.35;9.80;;;;;;;1.01;88.83;100026.63;4203248;28;20039;-72
2022/04/17 06:54:19;;;;;;;16.85;10.23;;;;;;;1.07;87.99;100026.28;4206182;28;20271;-72
2022/04/17 06:56:19;;;;;;;18.95;10.93;;;;;;;1.13;86.98;100018.91;4207468;27;20047;-72
2022/04/17 06:58:20;;;;;;;17.27;10.38;;;;;;;1.19;86.26;100025.19;4202975;28;20026;-72
2022/04/17 07:00:22;;;;;;;21.45;13.45;;;;;;;1.23;86.16;100018.88;4202725;28;20173;-72
2022/04/17 07:02:23;;;;;;;21.25;13.00;;;;;;;1.41;87.20;100022.91;4204348;28;20063;-72
2022/04/17 07:04:24;;;;;;;18.65;12.13;;;;;;;1.50;85.98;100018.50;4208115;28;20261;-72
2022/04/17 07:06:24;;;;;;;24.70;15.88;;;;;;;1.67;85.98;100021.69;4204982;28;20384;-72
2022/04/17 07:08:25;;;;;;;20.00;13.27;;;;;;;1.82;84.69;100023.50;4201195;28;20047;-71
2022/04/17 07:10:27;;;;;;;34.13;18.88;;;;;;;1.90;83.40;100030.25;4198332;28;20048;-71
2022/04/17 07:12:29;;;;;;;20.00;13.90;;;;;;;2.01;83.55;100031.03;4196591;28;20044;-72
2022/04/17 07:14:30;;;;;;;22.73;13.80;;;;;;;2.11;83.67;100026.31;4194786;28;20074;-72
2022/04/17 07:16:30;;;;;;;18.50;12.30;;;;;;;2.19;83.13;100025.69;4195403;28;20323;-72
2022/04/17 07:18:30;;;;;;;20.00;12.68;;;;;;;2.31;82.99;100022.59;4197688;28;20105;-72
2022/04/17 07:20:31;;;;;;;19.67;12.50;;;;;;;2.53;82.37;100027.59;4198634;28;20052;-72
2022/04/17 07:22:33;;;;;;;24.48;13.02;;;;;;;2.67;80.74;100025.81;4195275;28;20450;-72
2022/04/17 07:24:33;;;;;;;20.17;12.65;;;;;;;2.66;80.59;100032.41;4201630;28;20468;-72
2022/04/17 07:26:34;;;;;;;19.85;12.80;;;;;;;2.62;80.17;100023.13;4197325;28;20461;-71
2022/04/17 07:28:34;;;;;;;19.73;12.45;;;;;;;2.75;81.87;100027.13;4195314;28;20047;-71
2022/04/17 07:30:35;;;;;;;21.70;12.77;;;;;;;2.83;80.70;100017.47;4195586;28;20032;-71
2022/04/17 07:32:35;;;;;;;16.08;12.05;;;;;;;2.84;80.08;100016.38;4198692;28;20051;-71
2022/04/17 07:34:36;;;;;;;15.57;11.65;;;;;;;2.93;81.63;100026.38;4195992;28;20052;-72
2022/04/17 07:36:36;;;;;;;18.30;11.68;;;;;;;3.02;80.56;100030.09;4197509;28;20068;-72
2022/04/17 07:38:37;;;;;;;15.95;10.98;;;;;;;3.13;79.16;100025.31;4197350;28;20044;-71
2022/04/17 07:40:38;;;;;;;14.45;10.75;;;;;;;3.21;81.32;100019.22;4196979;28;20077;-72
2022/04/17 07:42:38;;;;;;;12.63;10.40;;;;;;;3.27;82.36;100020.78;4197005;28;20036;-72
2022/04/17 07:44:39;;;;;;;14.95;10.95;;;;;;;3.32;82.01;100022.66;4201881;28;20044;-72
2022/04/17 07:46:42;;;;;;;17.10;11.25;;;;;;;3.39;81.06;100023.09;4202742;28;20085;-71
2022/04/17 07:48:42;;;;;;;;;;;;;;;3.45;79.87;100041.09;4205292;28;20135;-71
2022/04/17 07:50:43;;;;;;;18.00;10.70;;;;;;;3.53;79.71;100042.34;4200056;28;20238;-71
2022/04/17 07:52:44;;;;;;;14.00;9.55;;;;;;;3.59;78.44;100042.00;4202556;28;20662;-71
2022/04/17 07:54:45;;;;;;;14.27;9.70;;;;;;;3.66;77.05;100036.19;4202242;28;20155;-71
2022/04/17 07:56:45;;;;;;;14.50;10.45;;;;;;;3.71;76.49;100024.31;4201182;28;20479;-71
2022/04/17 07:58:45;;;;;;;13.10;9.25;;;;;;;3.77;77.11;100031.38;4200661;28;20051;-71
2022/04/17 08:00:51;;;;;;;14.70;9.93;;;;;;;3.85;77.33;100036.19;4208892;28;20434;-71
2022/04/17 08:03:07;;;;;;;13.98;9.77;;;;;;;3.99;77.42;100028.06;4208514;28;20071;-71
2022/04/17 08:05:08;;;;;;;16.40;10.73;;;;;;;4.08;77.38;100031.75;4209588;27;20396;-71
2022/04/17 08:07:08;;;;;;;14.57;9.50;;;;;;;4.17;77.41;100038.19;4205710;28;20725;-71
2022/04/17 08:09:08;;;;;;;13.80;9.13;;;;;;;4.31;73.71;100039.06;4205861;28;20076;-71
2022/04/17 08:11:10;;;;;;;10.75;8.85;;;;;;;4.53;73.08;100034.84;4210074;27;20415;-72
2022/04/17 08:13:12;;;;;;;12.88;9.52;;;;;;;4.62;71.87;100035.78;4205580;27;20036;-71
2022/04/17 08:15:12;;;;;;;11.48;9.00;;;;;;;4.71;71.34;100033.97;4202718;28;20040;-71
2022/04/17 08:17:12;;;;;;;14.90;10.00;;;;;;;4.85;70.50;100028.53;4201971;28;20063;-71
2022/04/17 08:19:13;;;;;;;12.48;9.93;;;;;;;4.93;70.88;100023.16;4204991;28;20040;-71
2022/04/17 08:21:13;;;;;;;13.30;9.00;;;;;;;5.07;70.87;100024.00;4207245;28;20040;-71
2022/04/17 08:23:14;;;;;;;14.15;9.10;;;;;;;5.17;71.43;100017.50;4205811;28;20255;-71
2022/04/17 08:25:14;;;;;;;14.48;9.52;;;;;;;5.31;71.47;100022.97;4206197;28;20040;-71
2022/04/17 08:27:15;;;;;;;13.15;9.45;;;;;;;5.47;68.00;100018.00;4204874;28;20079;-72
2022/04/17 08:29:17;;;;;;;12.35;9.32;;;;;;;5.61;69.53;100024.25;4205736;28;20487;-72
2022/04/17 08:31:17;;;;;;;13.27;8.00;;;;;;;5.62;67.44;100003.91;4205769;28;20306;-72
2022/04/17 08:33:17;;;;;;;13.32;9.00;;;;;;;5.76;66.63;100003.91;4205397;28;20459;-72
2022/04/17 08:35:18;;;;;;;12.13;9.65;;;;;;;5.87;66.26;100010.78;4212097;28;20044;-72
2022/04/17 08:37:18;;;;;;;12.30;8.77;;;;;;;5.98;65.70;100005.91;4205067;28;20093;-72
2022/04/17 08:39:19;;;;;;;13.93;10.07;;;;;;;5.99;65.48;100007.53;4209918;28;20047;-72
2022/04/17 08:41:20;;;;;;;12.25;7.35;;;;;;;6.07;61.73;100010.34;4212242;28;20541;-72
2022/04/17 08:43:21;;;;;;;15.65;8.73;;;;;;;6.17;64.37;99998.28;4207444;28;20480;-72
2022/04/17 08:45:23;;;;;;;10.27;8.23;;;;;;;6.18;62.35;99992.47;4205560;28;20052;-72
2022/04/17 08:47:25;;;;;;;11.88;7.75;;;;;;;6.20;63.08;100001.22;4209351;28;20055;-71
2022/04/17 08:49:25;;;;;;;10.77;7.22;;;;;;;6.34;61.84;99994.84;4206125;28;20047;-71
2022/04/17 08:51:27;;;;;;;11.55;8.25;;;;;;;6.45;61.82;99990.72;4205406;28;20480;-71
2022/04/17 08:53:27;;;;;;;9.05;6.88;;;;;;;6.53;61.13;99986.41;4207714;28;20048;-71
2022/04/17 08:55:28;;;;;;;13.52;7.60;;;;;;;6.56;62.05;99989.34;4209246;28;20169;-71
2022/04/17 08:57:29;;;;;;;9.77;7.07;;;;;;;6.61;61.23;99991.13;4205410;28;20483;-71
2022/04/17 08:59:29;;;;;;;10.85;7.70;;;;;;;6.65;60.34;99983.91;4205669;28;20475;-72
2022/04/17 09:01:30;;;;;;;9.80;8.02;;;;;;;6.69;59.15;99987.63;4207676;28;20040;-72
2022/04/17 09:03:32;;;;;;;9.35;6.57;;;;;;;6.61;59.53;99988.41;4208674;28;20399;-72
2022/04/17 09:05:33;;;;;;;12.35;7.28;;;;;;;6.64;59.22;99985.84;4205163;28;20875;-72
2022/04/17 09:07:48;;;;;;;8.23;5.95;;;;;;;6.52;55.29;99988.34;4204577;28;20452;-72
2022/04/17 09:09:50;;;;;;;6.82;5.75;;;;;;;6.62;56.48;99979.84;4206453;28;20115;-72
2022/04/17 09:11:55;;;;;;;8.93;5.57;;;;;;;6.71;56.30;99979.91;4204758;28;20094;-72
2022/04/17 09:14:03;;;;;;;6.95;5.20;;;;;;;6.70;55.31;99961.75;4204954;28;20078;-72
2022/04/17 09:16:04;;;;;;;8.32;6.50;;;;;;;6.78;58.52;99960.97;4204162;28;20047;-72
2022/04/17 09:18:08;;;;;;;7.25;5.53;;;;;;;6.88;56.20;99959.91;4206599;27;20028;-72
2022/04/17 09:20:18;;;;;;;6.90;3.88;;;;;;;6.97;51.43;99952.50;4209146;28;20107;-71
2022/04/17 09:22:18;;;;;;;5.70;4.13;;;;;;;7.03;51.63;99941.03;4205971;28;20023;-71
2022/04/17 09:24:21;;;;;;;6.75;3.83;;;;;;;7.14;51.43;99937.97;4205857;28;20395;-71
2022/04/17 09:26:23;;;;;;;5.95;3.80;;;;;;;7.23;51.42;99933.31;4204851;28;20062;-71
2022/04/17 09:28:30;;;;;;;7.43;5.18;;;;;;;7.33;55.24;99931.03;4207574;27;20082;-71
2022/04/17 09:30:35;;;;;;;8.43;4.95;;;;;;;7.39;51.08;99931.72;4208784;28;20032;-71
2022/04/17 09:32:36;;;;;;;6.30;4.50;;;;;;;7.47;51.76;99914.41;4204983;28;20101;-71
2022/04/17 09:34:49;;;;;;;5.68;4.65;;;;;;;7.40;51.43;99916.00;4204961;28;20036;-71